| time (UTC) | temp C | wind direction | speed KPH | gust KPH | rain 1hr cm | rain 24hr cm | rain mn cm | humidity % | barometer mb |
| 20260906231612 | 29 | 258 | 3.2 | 17.7 | 0.00 | 0.00 | 0.00 | 25 | 1015.8 |
| 20260906231555 | 29 | 307 | 0.0 | 14.5 | 0.00 | 0.00 | 0.00 | 25 | 1004.7 |
| 20260906230115 | 29 | 278 | 1.6 | 9.7 | 0.00 | 0.00 | 0.00 | 26 | 1004.5 |
| 20260906230058 | 29 | 275 | 1.6 | 14.5 | 0.00 | 0.00 | 0.00 | 26 | 1015.7 |
| 20260906224607 | 28 | 236 | 3.2 | 22.5 | 0.00 | 0.00 | 0.00 | 26 | 1004.5 |
| 20260906223109 | 29 | 273 | 11.3 | 25.7 | 0.00 | 0.00 | 0.00 | 24 | 1015.7 |
| 20260906223054 | 29 | 301 | 8.0 | 24.1 | 0.00 | 0.00 | 0.00 | 24 | 1004.5 |
| 20260906221600 | 30 | 271 | 9.7 | 20.9 | 0.00 | 0.00 | 0.00 | 22 | 1015.6 |
| 20260906221559 | 30 | 285 | 8.0 | 17.7 | 0.00 | 0.00 | 0.00 | 23 | 1004.4 |
| 20260906220058 | 31 | 277 | 4.8 | 16.1 | 0.00 | 0.00 | 0.00 | 22 | 1015.5 |
| 20260906220053 | 31 | 269 | 3.2 | 14.5 | 0.00 | 0.00 | 0.00 | 22 | 1004.3 |
| 20260906214557 | 31 | 260 | 3.2 | 9.7 | 0.00 | 0.00 | 0.00 | 20 | 1015.5 |
| 20260906214549 | 31 | 271 | 3.2 | 8.0 | 0.00 | 0.00 | 0.00 | 20 | 1004.5 |
| 20260906213104 | 31 | 330 | 6.4 | 16.1 | 0.00 | 0.00 | 0.00 | 20 | 1015.6 |
| 20260906213048 | 31 | 4 | 3.2 | 14.5 | 0.00 | 0.00 | 0.00 | 20 | 1004.6 |
| 20260906211604 | 31 | 341 | 4.8 | 14.5 | 0.00 | 0.00 | 0.00 | 20 | 1015.8 |
| 20260906211550 | 31 | 349 | 1.6 | 12.9 | 0.00 | 0.00 | 0.00 | 20 | 1004.8 |
| 20260906210108 | 32 | 249 | 3.2 | 14.5 | 0.00 | 0.00 | 0.00 | 19 | 1016.0 |
| 20260906210043 | 32 | 255 | 3.2 | 12.9 | 0.00 | 0.00 | 0.00 | 19 | 1005.0 |
| 20260906204608 | 31 | 290 | 3.2 | 17.7 | 0.00 | 0.00 | 0.00 | 20 | 1016.2 |
| 20260906204541 | 31 | 295 | 3.2 | 16.1 | 0.00 | 0.00 | 0.00 | 20 | 1005.0 |
| 20260906203058 | 31 | 279 | 6.4 | 17.7 | 0.00 | 0.00 | 0.00 | 20 | 1016.3 |
| 20260906203041 | 31 | 283 | 4.8 | 16.1 | 0.00 | 0.00 | 0.00 | 21 | 1005.2 |
| 20260906201600 | 31 | 244 | 4.8 | 14.5 | 0.00 | 0.00 | 0.00 | 21 | 1016.6 |
| 20260906201537 | 31 | 280 | 1.6 | 12.9 | 0.00 | 0.00 | 0.00 | 22 | 1005.6 |
| 20260906200104 | 31 | 274 | 3.2 | 12.9 | 0.00 | 0.00 | 0.00 | 21 | 1016.7 |
| 20260906200035 | 31 | 269 | 3.2 | 12.9 | 0.00 | 0.00 | 0.00 | 21 | 1005.8 |
| 20260906194606 | 31 | 271 | 6.4 | 14.5 | 0.00 | 0.00 | 0.00 | 20 | 1016.8 |
| 20260906194533 | 31 | 259 | 3.2 | 12.9 | 0.00 | 0.00 | 0.00 | 20 | 1006.0 |
| 20260906193055 | 31 | 267 | 1.6 | 9.7 | 0.00 | 0.00 | 0.00 | 18 | 1016.9 |
| 20260906193032 | 31 | 262 | 0.0 | 8.0 | 0.00 | 0.00 | 0.00 | 19 | 1006.1 |
| 20260906191605 | 31 | 86 | 3.2 | 12.9 | 0.00 | 0.00 | 0.00 | 20 | 1017.3 |
| 20260906191529 | 31 | 40 | 3.2 | 8.0 | 0.00 | 0.00 | 0.00 | 20 | 1006.4 |
| 20260906190103 | 30 | 259 | 1.6 | 4.8 | 0.00 | 0.00 | 0.00 | 21 | 1017.5 |
| 20260906190026 | 30 | 250 | 1.6 | 4.8 | 0.00 | 0.00 | 0.00 | 22 | 1006.7 |
| 20260906184610 | 30 | 265 | 0.0 | 3.2 | 0.00 | 0.00 | 0.00 | 22 | 1018.0 |
| 20260906184525 | 30 | 269 | 0.0 | 3.2 | 0.00 | 0.00 | 0.00 | 22 | 1007.0 |
| 20260906183105 | 30 | 0 | 0.0 | 6.4 | 0.00 | 0.00 | 0.00 | 20 | 1018.2 |
| 20260906183040 | 30 | 278 | 0.0 | 4.8 | 0.00 | 0.00 | 0.00 | 21 | 1007.3 |
| 20260906181601 | 30 | 263 | 1.6 | 6.4 | 0.00 | 0.00 | 0.00 | 23 | 1018.3 |
| 20260906181518 | 30 | 266 | 0.0 | 6.4 | 0.00 | 0.00 | 0.00 | 23 | 1007.7 |
| 20260906180059 | 31 | 280 | 1.6 | 6.4 | 0.00 | 0.00 | 0.00 | 20 | 1018.3 |
| 20260906180020 | 31 | 283 | 0.0 | 6.4 | 0.00 | 0.00 | 0.00 | 20 | 1007.9 |
| 20260906174602 | 30 | 65 | 0.0 | 6.4 | 0.00 | 0.00 | 0.00 | 23 | 1018.8 |
| 20260906174512 | 30 | 60 | 0.0 | 6.4 | 0.00 | 0.00 | 0.00 | 24 | 1008.2 |
| 20260906173106 | 30 | 46 | 3.2 | 9.7 | 0.00 | 0.00 | 0.00 | 22 | 1019.1 |
| 20260906173012 | 30 | 89 | 3.2 | 8.0 | 0.00 | 0.00 | 0.00 | 22 | 1008.4 |
| 20260906171601 | 28 | 237 | 1.6 | 6.4 | 0.00 | 0.00 | 0.00 | 24 | 1019.2 |
| 20260906171516 | 28 | 121 | 0.0 | 4.8 | 0.00 | 0.00 | 0.00 | 24 | 1008.6 |
| 20260906170003 | 27 | 88 | 3.2 | 6.4 | 0.00 | 0.00 | 0.00 | 24 | 1009.0 |
| 20260906164607 | 27 | 162 | 0.0 | 4.8 | 0.00 | 0.00 | 0.00 | 27 | 1019.5 |
| 20260906164601 | 27 | 147 | 0.0 | 3.2 | 0.00 | 0.00 | 0.00 | 26 | 1009.1 |
| 20260906163101 | 27 | 145 | 1.6 | 6.4 | 0.00 | 0.00 | 0.00 | 27 | 1009.2 |
| 20260906161600 | 26 | 144 | 1.6 | 6.4 | 0.00 | 0.00 | 0.00 | 29 | 1019.4 |
| 20260906161559 | 26 | 142 | 0.0 | 4.8 | 0.00 | 0.00 | 0.00 | 29 | 1009.2 |
| 20260906160101 | 26 | 118 | 3.2 | 8.0 | 0.00 | 0.00 | 0.00 | 29 | 1019.5 |
| 20260906160052 | 26 | 116 | 1.6 | 6.4 | 0.00 | 0.00 | 0.00 | 30 | 1009.3 |
| 20260906154558 | 26 | 172 | 0.0 | 3.2 | 0.00 | 0.00 | 0.00 | 28 | 1019.4 |
| 20260906154549 | 26 | 172 | 0.0 | 3.2 | 0.00 | 0.00 | 0.00 | 29 | 1009.4 |
| 20260906153100 | 24 | 115 | 1.6 | 6.4 | 0.00 | 0.00 | 0.00 | 29 | 1019.5 |
| 20260906153045 | 24 | 111 | 1.6 | 4.8 | 0.00 | 0.00 | 0.00 | 30 | 1009.4 |
| 20260906151605 | 23 | 79 | 3.2 | 12.9 | 0.00 | 0.00 | 0.00 | 34 | 1019.6 |
| 20260906151541 | 23 | 75 | 1.6 | 9.7 | 0.00 | 0.00 | 0.00 | 35 | 1009.6 |
| 20260906150047 | 22 | 61 | 1.6 | 8.0 | 0.00 | 0.00 | 0.00 | 37 | 1009.7 |
| 20260906144619 | 22 | 126 | 3.2 | 14.5 | 0.00 | 0.00 | 0.00 | 36 | 1019.8 |
| 20260906144543 | 22 | 122 | 1.6 | 11.3 | 0.00 | 0.00 | 0.00 | 37 | 1009.8 |
| 20260906143112 | 22 | 160 | 1.6 | 8.0 | 0.00 | 0.00 | 0.00 | 36 | 1020.1 |
| 20260906143037 | 22 | 159 | 0.0 | 8.0 | 0.00 | 0.00 | 0.00 | 37 | 1009.9 |
| 20260906141557 | 21 | 161 | 1.6 | 11.3 | 0.00 | 0.00 | 0.00 | 37 | 1020.0 |
| 20260906141536 | 21 | 159 | 0.0 | 4.8 | 0.00 | 0.00 | 0.00 | 37 | 1010.0 |
| 20260906140036 | 18 | 109 | 1.6 | 4.8 | 0.00 | 0.00 | 0.00 | 45 | 1009.7 |
| 20260906134558 | 18 | 98 | 1.6 | 6.4 | 0.00 | 0.00 | 0.00 | 46 | 1019.6 |
| 20260906134525 | 18 | 158 | 1.6 | 6.4 | 0.00 | 0.00 | 0.00 | 46 | 1009.7 |
| 20260906133107 | 17 | 0 | 0.0 | 1.6 | 0.00 | 0.00 | 0.00 | 45 | 1019.5 |
| 20260906133024 | 17 | 110 | 0.0 | 1.6 | 0.00 | 0.00 | 0.00 | 46 | 1009.5 |
| 20260906131600 | 17 | 156 | 0.0 | 3.2 | 0.00 | 0.00 | 0.00 | 44 | 1019.2 |
| 20260906131523 | 17 | 155 | 0.0 | 3.2 | 0.00 | 0.00 | 0.00 | 45 | 1009.3 |
| 20260906130100 | 17 | 144 | 1.6 | 3.2 | 0.00 | 0.00 | 0.00 | 44 | 1019.2 |
| 20260906130026 | 17 | 142 | 0.0 | 3.2 | 0.00 | 0.00 | 0.00 | 45 | 1009.2 |
| 20260906124605 | 17 | 60 | 3.2 | 8.0 | 0.00 | 0.00 | 0.00 | 45 | 1019.1 |
| 20260906124521 | 17 | 56 | 3.2 | 9.7 | 0.00 | 0.00 | 0.00 | 45 | 1009.1 |
| 20260906123106 | 17 | 169 | 1.6 | 6.4 | 0.00 | 0.00 | 0.00 | 45 | 1018.9 |
| 20260906123030 | 17 | 146 | 1.6 | 3.2 | 0.00 | 0.00 | 0.00 | 45 | 1008.9 |
| 20260906121557 | 17 | 40 | 3.2 | 8.0 | 0.00 | 0.00 | 0.00 | 45 | 1019.1 |
| 20260906121533 | 17 | 34 | 1.6 | 6.4 | 0.00 | 0.00 | 0.00 | 45 | 1009.0 |
| 20260906120113 | 17 | 24 | 3.2 | 8.0 | 0.00 | 0.00 | 0.00 | 44 | 1018.9 |
| 20260906120016 | 17 | 18 | 1.6 | 8.0 | 0.00 | 0.00 | 0.00 | 45 | 1008.9 |
| 20260906114558 | 17 | 159 | 1.6 | 6.4 | 0.00 | 0.00 | 0.00 | 45 | 1018.8 |
| 20260906114522 | 17 | 158 | 1.6 | 4.8 | 0.00 | 0.00 | 0.00 | 46 | 1008.8 |
| 20260906113058 | 17 | 65 | 1.6 | 9.7 | 0.00 | 0.00 | 0.00 | 47 | 1018.9 |
| 20260906113036 | 17 | 63 | 1.6 | 8.0 | 0.00 | 0.00 | 0.00 | 47 | 1008.9 |
| 20260906111557 | 17 | 0 | 1.6 | 8.0 | 0.00 | 0.00 | 0.00 | 47 | 1018.8 |
| 20260906111514 | 17 | 41 | 1.6 | 8.0 | 0.00 | 0.00 | 0.00 | 47 | 1008.8 |
| 20260906110103 | 17 | 43 | 3.2 | 8.0 | 0.00 | 0.00 | 0.00 | 46 | 1018.7 |
| 20260906110012 | 17 | 36 | 1.6 | 6.4 | 0.00 | 0.00 | 0.00 | 47 | 1008.7 |
| 20260906104600 | 17 | 0 | 0.0 | 4.8 | 0.00 | 0.00 | 0.00 | 46 | 1018.6 |
| 20260906104512 | 17 | 56 | 0.0 | 4.8 | 0.00 | 0.00 | 0.00 | 47 | 1008.5 |
| 20260906103100 | 16 | 59 | 1.6 | 3.2 | 0.00 | 0.00 | 0.00 | 49 | 1018.4 |
| 20260906103008 | 16 | 54 | 0.0 | 3.2 | 0.00 | 0.00 | 0.00 | 49 | 1008.3 |
| 20260906101601 | 16 | 58 | 1.6 | 3.2 | 0.00 | 0.00 | 0.00 | 53 | 1018.4 |
| 20260906101507 | 16 | 53 | 0.0 | 3.2 | 0.00 | 0.00 | 0.00 | 53 | 1008.3 |
| 20260906100105 | 16 | 0 | 0.0 | 1.6 | 0.00 | 0.00 | 0.00 | 49 | 1018.4 |
| 20260906100015 | 16 | 53 | 0.0 | 1.6 | 0.00 | 0.00 | 0.00 | 50 | 1008.4 |
| 20260906094556 | 17 | 58 | 1.6 | 3.2 | 0.00 | 0.00 | 0.00 | 48 | 1018.3 |
| 20260906094505 | 17 | 53 | 1.6 | 3.2 | 0.00 | 0.00 | 0.00 | 49 | 1008.1 |
| 20260906093112 | 17 | 49 | 1.6 | 6.4 | 0.00 | 0.00 | 0.00 | 47 | 1018.2 |
| 20260906093003 | 17 | 44 | 1.6 | 6.4 | 0.00 | 0.00 | 0.00 | 48 | 1008.1 |
| 20260906091600 | 17 | 0 | 1.6 | 3.2 | 0.00 | 0.00 | 0.00 | 48 | 1018.3 |
| 20260906091501 | 17 | 46 | 0.0 | 3.2 | 0.00 | 0.00 | 0.00 | 49 | 1008.2 |
| 20260906090124 | 17 | 59 | 0.0 | 6.4 | 0.00 | 0.00 | 0.00 | 49 | 1018.5 |
| 20260906090108 | 17 | 54 | 0.0 | 4.8 | 0.00 | 0.00 | 0.00 | 50 | 1008.3 |
| 20260906084559 | 16 | 46 | 0.0 | 1.6 | 0.00 | 0.00 | 0.00 | 52 | 1008.2 |
| 20260906084557 | 16 | 51 | 0.0 | 1.6 | 0.00 | 0.00 | 0.00 | 52 | 1018.4 |
| 20260906083058 | 17 | 46 | 0.0 | 3.2 | 0.00 | 0.00 | 0.00 | 51 | 1008.1 |
| 20260906083056 | 17 | 0 | 0.0 | 4.8 | 0.00 | 0.00 | 0.00 | 51 | 1018.4 |
| 20260906081602 | 15 | 43 | 1.6 | 3.2 | 0.00 | 0.00 | 0.00 | 59 | 1008.3 |
| 20260906081600 | 15 | 49 | 1.6 | 1.6 | 0.00 | 0.00 | 0.00 | 59 | 1018.6 |
| 20260906080103 | 15 | 0 | 0.0 | 0.0 | 0.00 | 0.00 | 0.00 | 57 | 1018.5 |
| 20260906080053 | 15 | 347 | 0.0 | 0.0 | 0.00 | 0.00 | 0.00 | 57 | 1008.1 |
| 20260906074607 | 16 | 345 | 0.0 | 0.0 | 0.00 | 0.00 | 0.00 | 56 | 1008.0 |
| 20260906074559 | 16 | 0 | 0.0 | 0.0 | 0.00 | 0.00 | 0.00 | 56 | 1018.4 |
| 20260906073055 | 16 | 340 | 1.6 | 1.6 | 0.00 | 0.00 | 0.00 | 54 | 1018.4 |
| 20260906073048 | 16 | 345 | 1.6 | 1.6 | 0.00 | 0.00 | 0.00 | 55 | 1008.0 |
| 20260906071609 | 16 | 340 | 0.0 | 1.6 | 0.00 | 0.00 | 0.00 | 56 | 1018.4 |
| 20260906071546 | 16 | 345 | 0.0 | 1.6 | 0.00 | 0.00 | 0.00 | 56 | 1007.9 |
| 20260906070059 | 16 | 0 | 0.0 | 1.6 | 0.00 | 0.00 | 0.00 | 54 | 1018.6 |
| 20260906070043 | 16 | 347 | 0.0 | 0.0 | 0.00 | 0.00 | 0.00 | 55 | 1008.1 |
| 20260906064601 | 17 | 0 | 0.0 | 1.6 | 0.00 | 0.00 | 0.00 | 51 | 1018.5 |
| 20260906064541 | 17 | 345 | 0.0 | 1.6 | 0.00 | 0.00 | 0.00 | 52 | 1008.0 |
| 20260906063103 | 17 | 0 | 0.0 | 1.6 | 0.00 | 0.00 | 0.00 | 50 | 1018.4 |
| 20260906063039 | 17 | 345 | 0.0 | 1.6 | 0.00 | 0.00 | 0.00 | 50 | 1007.9 |
| 20260906061558 | 17 | 0 | 0.0 | 3.2 | 0.00 | 0.00 | 0.00 | 51 | 1018.2 |
| 20260906061536 | 17 | 345 | 0.0 | 3.2 | 0.00 | 0.00 | 0.00 | 51 | 1007.8 |
| 20260906060059 | 17 | 0 | 0.0 | 1.6 | 0.00 | 0.00 | 0.00 | 50 | 1018.0 |
| 20260906060035 | 17 | 333 | 0.0 | 1.6 | 0.00 | 0.00 | 0.00 | 50 | 1007.7 |
| 20260906054600 | 17 | 327 | 0.0 | 1.6 | 0.00 | 0.00 | 0.00 | 50 | 1018.2 |
| 20260906054536 | 17 | 333 | 0.0 | 1.6 | 0.00 | 0.00 | 0.00 | 50 | 1007.7 |
| 20260906053058 | 18 | 0 | 0.0 | 3.2 | 0.00 | 0.00 | 0.00 | 52 | 1018.1 |
| 20260906053036 | 18 | 328 | 0.0 | 1.6 | 0.00 | 0.00 | 0.00 | 52 | 1007.6 |
| 20260906051557 | 18 | 335 | 0.0 | 1.6 | 0.00 | 0.00 | 0.00 | 54 | 1018.1 |
| 20260906051532 | 18 | 324 | 0.0 | 1.6 | 0.00 | 0.00 | 0.00 | 54 | 1007.6 |
| 20260906050133 | 18 | 0 | 0.0 | 0.0 | 0.00 | 0.00 | 0.00 | 54 | 1018.1 |
| 20260906050043 | 18 | 277 | 0.0 | 0.0 | 0.00 | 0.00 | 0.00 | 55 | 1007.6 |
| 20260906044600 | 18 | 0 | 0.0 | 0.0 | 0.00 | 0.00 | 0.00 | 53 | 1018.1 |
| 20260906044536 | 18 | 277 | 0.0 | 0.0 | 0.00 | 0.00 | 0.00 | 53 | 1007.5 |
| 20260906043110 | 18 | 0 | 0.0 | 0.0 | 0.00 | 0.00 | 0.00 | 51 | 1018.0 |
| 20260906043032 | 18 | 276 | 0.0 | 0.0 | 0.00 | 0.00 | 0.00 | 52 | 1007.3 |
| 20260906041602 | 19 | 0 | 0.0 | 0.0 | 0.00 | 0.00 | 0.00 | 48 | 1017.9 |
| 20260906041534 | 19 | 277 | 0.0 | 0.0 | 0.00 | 0.00 | 0.00 | 49 | 1007.1 |
| 20260906040114 | 20 | 0 | 0.0 | 0.0 | 0.00 | 0.00 | 0.00 | 46 | 1017.8 |
| 20260906040030 | 20 | 277 | 0.0 | 0.0 | 0.00 | 0.00 | 0.00 | 46 | 1006.9 |
| 20260906034601 | 20 | 0 | 0.0 | 0.0 | 0.00 | 0.00 | 0.00 | 44 | 1017.5 |
| 20260906034530 | 20 | 277 | 0.0 | 0.0 | 0.00 | 0.00 | 0.00 | 44 | 1006.8 |
| 20260906033054 | 21 | 0 | 0.0 | 0.0 | 0.00 | 0.00 | 0.00 | 41 | 1017.5 |
| 20260906033040 | 21 | 276 | 0.0 | 0.0 | 0.00 | 0.00 | 0.00 | 41 | 1006.6 |
| 20260906031630 | 21 | 0 | 0.0 | 0.0 | 0.00 | 0.00 | 0.00 | 37 | 1017.4 |
| 20260906031531 | 21 | 275 | 0.0 | 0.0 | 0.00 | 0.00 | 0.00 | 38 | 1006.3 |
| 20260906030136 | 22 | 0 | 0.0 | 0.0 | 0.00 | 0.00 | 0.00 | 36 | 1017.0 |
| 20260906030029 | 22 | 275 | 0.0 | 0.0 | 0.00 | 0.00 | 0.00 | 37 | 1006.0 |
| 20260906024619 | 23 | 0 | 0.0 | 0.0 | 0.00 | 0.00 | 0.00 | 39 | 1016.9 |
| 20260906024528 | 23 | 275 | 0.0 | 0.0 | 0.00 | 0.00 | 0.00 | 40 | 1005.9 |
| 20260906023126 | 24 | 0 | 0.0 | 1.6 | 0.00 | 0.00 | 0.00 | 35 | 1016.8 |
| 20260906023028 | 24 | 276 | 0.0 | 0.0 | 0.00 | 0.00 | 0.00 | 35 | 1005.6 |
| 20260906021611 | 25 | 0 | 0.0 | 0.0 | 0.00 | 0.00 | 0.00 | 34 | 1016.6 |
| 20260906021526 | 25 | 276 | 0.0 | 0.0 | 0.00 | 0.00 | 0.00 | 34 | 1005.3 |
| 20260906020107 | 26 | 0 | 0.0 | 0.0 | 0.00 | 0.00 | 0.00 | 32 | 1016.3 |
| 20260906020027 | 26 | 276 | 0.0 | 0.0 | 0.00 | 0.00 | 0.00 | 33 | 1005.1 |
| 20260906014559 | 27 | 0 | 0.0 | 0.0 | 0.00 | 0.00 | 0.00 | 30 | 1016.3 |
| 20260906014531 | 27 | 276 | 0.0 | 0.0 | 0.00 | 0.00 | 0.00 | 31 | 1005.0 |
| 20260906013059 | 29 | 0 | 0.0 | 0.0 | 0.00 | 0.00 | 0.00 | 27 | 1016.2 |
| 20260906013026 | 29 | 275 | 0.0 | 0.0 | 0.00 | 0.00 | 0.00 | 27 | 1005.0 |
| 20260906011605 | 31 | 0 | 0.0 | 4.8 | 0.00 | 0.00 | 0.00 | 24 | 1016.3 |
| 20260906011533 | 31 | 276 | 0.0 | 3.2 | 0.00 | 0.00 | 0.00 | 24 | 1005.0 |
| 20260906010101 | 32 | 248 | 1.6 | 6.4 | 0.00 | 0.00 | 0.00 | 23 | 1016.4 |
| 20260906010025 | 32 | 246 | 1.6 | 6.4 | 0.00 | 0.00 | 0.00 | 23 | 1005.1 |
| 20260906004558 | 32 | 254 | 3.2 | 9.7 | 0.00 | 0.00 | 0.00 | 22 | 1016.4 |
| 20260906004524 | 32 | 257 | 1.6 | 8.0 | 0.00 | 0.00 | 0.00 | 22 | 1005.1 |
| 20260906003109 | 32 | 259 | 3.2 | 12.9 | 0.00 | 0.00 | 0.00 | 22 | 1016.5 |
| 20260906003024 | 32 | 258 | 1.6 | 9.7 | 0.00 | 0.00 | 0.00 | 22 | 1005.1 |
| 20260906001602 | 32 | 300 | 6.4 | 14.5 | 0.00 | 0.00 | 0.00 | 21 | 1016.5 |
| 20260906001523 | 32 | 306 | 6.4 | 12.9 | 0.00 | 0.00 | 0.00 | 22 | 1005.2 |
| 20260906000056 | 32 | 259 | 4.8 | 12.9 | 0.00 | 0.00 | 0.00 | 22 | 1016.3 |
| 20260906000022 | 32 | 264 | 3.2 | 11.3 | 0.00 | 0.00 | 0.00 | 22 | 1005.1 |
| 20260905234615 | 32 | 268 | 4.8 | 17.7 | 0.00 | 0.00 | 0.00 | 22 | 1016.3 |
| 20260905234522 | 32 | 276 | 4.8 | 14.5 | 0.00 | 0.00 | 0.00 | 22 | 1005.1 |
| 20260905233056 | 33 | 277 | 4.8 | 14.5 | 0.00 | 0.00 | 0.00 | 21 | 1016.3 |
| 20260905233020 | 33 | 287 | 4.8 | 11.3 | 0.00 | 0.00 | 0.00 | 22 | 1005.1 |